Terminal Aerodrome Forecast
Issued by NWS Sterling, VA

Current Version | Previous Version | Graphics & Text | Print | Product List | Glossary On
Versions: 1 2 3 4 5 6 7 8 9 10 11 12
000
FTUS41 KLWX 270500
TAFMRB
TAF
KMRB 270536Z 2706/2806 00000KT 5SM BR FEW250
     FM271200 00000KT P6SM FEW250
     FM271500 00000KT P6SM SCT050
     FM272100 VRB04KT P6SM VCSH SCT050
     FM280000 27004KT P6SM BKN050=

USA.gov is the U.S. government's official web portal to all federal, state and local government web resources and services.